createdAt,value
2017-01-13T00:00:49.385Z,988.27
2017-01-13T00:02:00.077Z,988.3
2017-01-13T00:03:10.790Z,988.26
2017-01-13T00:04:21.523Z,988.18
2017-01-13T00:05:32.265Z,988.19
2017-01-13T00:06:43.014Z,988.19
2017-01-13T00:07:53.761Z,988.17
2017-01-13T00:09:04.503Z,988.11
2017-01-13T00:10:15.252Z,988.09
2017-01-13T00:11:25.987Z,988.03
2017-01-13T00:12:36.711Z,988
2017-01-13T00:13:47.415Z,987.95
2017-01-13T00:14:58.183Z,987.92
2017-01-13T00:16:08.879Z,987.87
2017-01-13T00:17:19.617Z,987.79
2017-01-13T00:18:30.317Z,987.74
2017-01-13T00:19:41.042Z,987.71
2017-01-13T00:20:51.759Z,987.73
2017-01-13T00:22:02.512Z,987.71
2017-01-13T00:23:13.234Z,987.66
2017-01-13T00:24:23.947Z,987.57
2017-01-13T00:25:34.668Z,987.53
2017-01-13T00:26:45.393Z,987.51
2017-01-13T00:27:56.110Z,987.52
2017-01-13T00:29:07.202Z,987.48
2017-01-13T00:30:17.935Z,987.47
2017-01-13T00:31:28.670Z,987.42
2017-01-13T00:32:39.394Z,987.44
2017-01-13T00:33:50.086Z,987.45
2017-01-13T00:35:00.816Z,987.46
2017-01-13T00:36:11.529Z,987.48
2017-01-13T00:37:22.261Z,987.44
2017-01-13T00:38:32.971Z,987.41
2017-01-13T00:39:43.704Z,987.32
2017-01-13T00:40:54.424Z,987.33
2017-01-13T00:42:05.140Z,987.29
2017-01-13T00:43:15.887Z,987.23
2017-01-13T00:44:26.586Z,987.18
2017-01-13T00:45:37.310Z,987.17
2017-01-13T00:46:48.068Z,987.14
2017-01-13T00:47:58.774Z,987.09
2017-01-13T00:49:09.489Z,987.05
2017-01-13T00:50:20.217Z,987.01
2017-01-13T00:51:30.938Z,986.93
2017-01-13T00:52:41.659Z,986.9
2017-01-13T00:53:52.396Z,986.91
2017-01-13T00:55:03.126Z,986.92
2017-01-13T00:56:13.847Z,986.93
2017-01-13T00:57:24.567Z,986.88
2017-01-13T00:58:35.290Z,986.8
2017-01-13T00:59:46.023Z,986.79
2017-01-13T01:00:56.752Z,986.76
2017-01-13T01:02:07.477Z,986.72
2017-01-13T01:03:18.186Z,986.71
2017-01-13T01:04:28.911Z,986.65
2017-01-13T01:05:39.641Z,986.65
2017-01-13T01:06:50.381Z,986.58
2017-01-13T01:08:01.130Z,986.57
2017-01-13T01:09:11.854Z,986.45
2017-01-13T01:10:22.587Z,986.42
2017-01-13T01:11:33.316Z,986.35
2017-01-13T01:12:44.040Z,986.29
2017-01-13T01:13:54.808Z,986.29
2017-01-13T01:15:05.499Z,986.18
2017-01-13T01:16:16.233Z,986.17
2017-01-13T01:17:26.967Z,986.14
2017-01-13T01:18:37.718Z,986.1
2017-01-13T01:19:48.454Z,986.14
2017-01-13T01:20:59.187Z,986.12
2017-01-13T01:22:09.925Z,986.11
2017-01-13T01:23:20.650Z,985.97
2017-01-13T01:24:31.419Z,985.82
2017-01-13T01:25:42.134Z,985.72
2017-01-13T01:26:52.859Z,985.64
2017-01-13T01:28:03.605Z,985.7
2017-01-13T01:29:14.351Z,985.62
2017-01-13T01:30:25.076Z,985.57
2017-01-13T01:31:35.772Z,985.61
2017-01-13T01:32:46.486Z,985.6
2017-01-13T01:33:57.182Z,985.6
2017-01-13T01:35:07.885Z,985.61
2017-01-13T01:36:18.609Z,985.57
2017-01-13T01:37:29.349Z,985.57
2017-01-13T01:38:40.076Z,985.49
2017-01-13T01:39:50.798Z,985.44
2017-01-13T01:41:01.543Z,985.43
2017-01-13T01:42:12.262Z,985.43
2017-01-13T01:43:23.008Z,985.32
2017-01-13T01:44:33.764Z,985.25
2017-01-13T01:45:44.474Z,985.23
2017-01-13T01:46:55.199Z,985.17
2017-01-13T01:48:05.946Z,985.02
2017-01-13T01:49:16.665Z,985.01
2017-01-13T01:50:27.408Z,984.97
2017-01-13T01:51:38.157Z,984.88
2017-01-13T01:52:48.875Z,984.85
2017-01-13T01:53:59.592Z,984.85
2017-01-13T01:55:10.292Z,984.81
2017-01-13T01:56:21.010Z,984.75
2017-01-13T01:57:31.736Z,984.71
2017-01-13T01:58:42.434Z,984.61
2017-01-13T01:59:53.161Z,984.63
2017-01-13T02:01:03.914Z,984.65
2017-01-13T02:02:14.646Z,984.59
2017-01-13T02:03:25.368Z,984.49
2017-01-13T02:04:36.081Z,984.47
2017-01-13T02:05:46.810Z,984.43
2017-01-13T02:06:57.548Z,984.41
2017-01-13T02:08:08.273Z,984.24
2017-01-13T02:09:18.998Z,984.18
2017-01-13T02:10:29.744Z,984.11
2017-01-13T02:11:40.492Z,984.1
2017-01-13T02:12:51.207Z,984.08
2017-01-13T02:14:01.946Z,984.05
2017-01-13T02:15:12.654Z,983.98
2017-01-13T02:16:23.373Z,983.84
2017-01-13T02:17:34.091Z,983.79
2017-01-13T02:18:44.858Z,983.73
2017-01-13T02:19:55.601Z,983.67
2017-01-13T02:21:06.300Z,983.61
2017-01-13T02:22:17.018Z,983.49
2017-01-13T02:23:27.726Z,983.43
2017-01-13T02:24:38.837Z,983.41
2017-01-13T02:25:49.542Z,983.41
2017-01-13T02:27:00.287Z,983.36
2017-01-13T02:28:11.384Z,983.24
2017-01-13T02:29:22.129Z,983.15
2017-01-13T02:30:32.864Z,983.07
2017-01-13T02:31:43.560Z,983.07
2017-01-13T02:32:54.259Z,983.09
2017-01-13T02:34:04.964Z,983.08
2017-01-13T02:35:15.685Z,983.02
2017-01-13T02:36:26.420Z,983.01
2017-01-13T02:37:37.119Z,982.95
2017-01-13T02:38:47.848Z,982.81
2017-01-13T02:39:58.585Z,982.87
2017-01-13T02:41:09.315Z,982.83
2017-01-13T02:42:20.051Z,982.79
2017-01-13T02:43:30.762Z,982.72
2017-01-13T02:44:41.503Z,982.65
2017-01-13T02:45:52.212Z,982.55
2017-01-13T02:47:03.308Z,982.38
2017-01-13T02:48:14.041Z,982.31
2017-01-13T02:49:24.761Z,982.33
2017-01-13T02:50:35.596Z,982.27
2017-01-13T02:51:46.750Z,982.21
2017-01-13T02:52:57.637Z,982.18
2017-01-13T02:54:08.391Z,982.1
2017-01-13T02:55:19.105Z,982.04
2017-01-13T02:56:29.836Z,981.91
2017-01-13T02:57:40.552Z,981.89
2017-01-13T02:58:51.269Z,981.84
2017-01-13T03:00:02.368Z,981.78
2017-01-13T03:01:13.093Z,981.76
2017-01-13T03:02:23.798Z,981.71
2017-01-13T03:03:34.515Z,981.67
2017-01-13T03:04:45.223Z,981.59
2017-01-13T03:05:55.944Z,981.6
2017-01-13T03:07:06.643Z,981.52
2017-01-13T03:08:17.365Z,981.51
2017-01-13T03:09:28.145Z,981.43
2017-01-13T03:10:39.269Z,981.41
2017-01-13T03:11:49.985Z,981.36
2017-01-13T03:13:00.696Z,981.28
2017-01-13T03:14:11.401Z,981.26
2017-01-13T03:15:22.148Z,981.2
2017-01-13T03:16:32.857Z,981.15
2017-01-13T03:17:43.591Z,981.16
2017-01-13T03:18:54.333Z,981.13
2017-01-13T03:20:05.072Z,981.07
2017-01-13T03:21:15.795Z,981.01
2017-01-13T03:22:26.513Z,980.98
2017-01-13T03:23:37.233Z,980.96
2017-01-13T03:24:47.966Z,980.89
2017-01-13T03:25:58.687Z,980.81
2017-01-13T03:27:09.422Z,980.73
2017-01-13T03:28:20.146Z,980.69
2017-01-13T03:29:30.901Z,980.61
2017-01-13T03:30:41.635Z,980.6
2017-01-13T03:31:52.366Z,980.49
2017-01-13T03:33:03.113Z,980.48
2017-01-13T03:34:13.851Z,980.38
2017-01-13T03:35:24.569Z,980.29
2017-01-13T03:36:35.300Z,980.31
2017-01-13T03:37:46.018Z,980.23
2017-01-13T03:38:56.739Z,980.24
2017-01-13T03:40:07.485Z,980.22
2017-01-13T03:41:18.211Z,980.24
2017-01-13T03:42:29.319Z,980.17
2017-01-13T03:43:40.015Z,980.13
2017-01-13T03:44:50.748Z,980.06
2017-01-13T03:46:01.464Z,980.07
2017-01-13T03:47:12.182Z,980.06
2017-01-13T03:48:22.907Z,980.12
2017-01-13T03:49:33.606Z,980.07
2017-01-13T03:50:44.316Z,980.01
2017-01-13T03:51:55.023Z,980.02
2017-01-13T03:53:05.742Z,979.96
2017-01-13T03:54:16.462Z,980.08
2017-01-13T03:55:27.183Z,980.02
2017-01-13T03:56:37.904Z,980.03
2017-01-13T03:57:48.643Z,979.97
2017-01-13T03:58:59.374Z,979.97
2017-01-13T04:00:10.097Z,979.83
2017-01-13T04:01:20.831Z,979.87
2017-01-13T04:02:31.538Z,979.76
2017-01-13T04:03:42.272Z,979.75
2017-01-13T04:04:52.996Z,979.63
2017-01-13T04:06:03.714Z,979.63
2017-01-13T04:07:14.441Z,979.52
2017-01-13T04:08:25.169Z,979.52
2017-01-13T04:09:35.883Z,979.43
2017-01-13T04:10:46.582Z,979.52
2017-01-13T04:11:57.305Z,979.45
2017-01-13T04:13:08.024Z,979.48
2017-01-13T04:14:18.764Z,979.47
2017-01-13T04:15:29.518Z,979.33
2017-01-13T04:16:40.207Z,979.38
2017-01-13T04:17:50.906Z,979.29
2017-01-13T04:19:01.632Z,979.26
2017-01-13T04:20:12.353Z,979.14
2017-01-13T04:21:23.096Z,979.15
2017-01-13T04:22:33.808Z,979.06
2017-01-13T04:23:44.515Z,979.09
2017-01-13T04:24:55.258Z,979.02
2017-01-13T04:26:05.971Z,979
2017-01-13T04:27:16.677Z,978.99
2017-01-13T04:28:27.370Z,978.91
2017-01-13T04:29:38.122Z,978.87
2017-01-13T04:30:48.863Z,978.86
2017-01-13T04:31:59.611Z,978.82
2017-01-13T04:33:10.335Z,978.87
2017-01-13T04:34:21.046Z,978.81
2017-01-13T04:35:31.766Z,978.76
2017-01-13T04:36:42.487Z,978.77
2017-01-13T04:37:53.585Z,978.72
2017-01-13T04:39:04.313Z,978.65
2017-01-13T04:40:15.022Z,978.72
2017-01-13T04:41:25.731Z,978.67
2017-01-13T04:42:36.827Z,978.78
2017-01-13T04:43:47.539Z,978.76
2017-01-13T04:44:58.269Z,978.73
2017-01-13T04:46:08.985Z,978.68
2017-01-13T04:47:19.735Z,978.68
2017-01-13T04:48:30.478Z,978.65
2017-01-13T04:49:41.190Z,978.66
2017-01-13T04:50:51.915Z,978.63
2017-01-13T04:52:02.633Z,978.62
2017-01-13T04:53:13.364Z,978.58
2017-01-13T04:54:24.082Z,978.61
2017-01-13T04:55:34.796Z,978.54
2017-01-13T04:56:45.503Z,978.59
2017-01-13T04:57:56.242Z,978.57
2017-01-13T04:59:06.994Z,978.54
2017-01-13T05:00:17.719Z,978.51
2017-01-13T05:01:28.483Z,978.5
2017-01-13T05:02:39.203Z,978.51
2017-01-13T05:03:49.955Z,978.45
2017-01-13T05:05:00.650Z,978.46
2017-01-13T05:06:11.365Z,978.51
2017-01-13T05:07:22.107Z,978.48
2017-01-13T05:08:32.811Z,978.5
2017-01-13T05:09:43.552Z,978.49
2017-01-13T05:10:54.294Z,978.45
2017-01-13T05:12:05.020Z,978.36
2017-01-13T05:13:15.736Z,978.39
2017-01-13T05:14:26.479Z,978.41
2017-01-13T05:15:37.182Z,978.4
2017-01-13T05:16:47.925Z,978.33
2017-01-13T05:17:58.621Z,978.35
2017-01-13T05:19:09.338Z,978.32
2017-01-13T05:20:20.062Z,978.23
2017-01-13T05:21:30.766Z,978.26
2017-01-13T05:22:41.511Z,978.26
2017-01-13T05:23:52.250Z,978.25
2017-01-13T05:25:02.991Z,978.19
2017-01-13T05:26:13.696Z,978.08
2017-01-13T05:27:24.396Z,978.13
2017-01-13T05:28:35.113Z,978.1
2017-01-13T05:29:45.826Z,978.1
2017-01-13T05:30:56.521Z,978.06
2017-01-13T05:32:07.253Z,978.04
2017-01-13T05:33:17.975Z,978.04
2017-01-13T05:34:28.688Z,978
2017-01-13T05:35:39.409Z,977.98
2017-01-13T05:36:50.155Z,977.97
2017-01-13T05:38:00.855Z,977.93
2017-01-13T05:39:11.576Z,977.91
2017-01-13T05:40:22.276Z,977.87
2017-01-13T05:41:32.993Z,977.87
2017-01-13T05:42:43.738Z,977.9
2017-01-13T05:43:54.464Z,977.86
2017-01-13T05:45:05.206Z,977.78
2017-01-13T05:46:15.952Z,977.79
2017-01-13T05:47:26.675Z,977.77
2017-01-13T05:48:37.394Z,977.73
2017-01-13T05:49:48.161Z,977.69
2017-01-13T05:50:58.878Z,977.71
2017-01-13T05:52:09.606Z,977.65
2017-01-13T05:53:20.357Z,977.6
2017-01-13T05:54:31.119Z,977.49
2017-01-13T05:55:41.862Z,977.49
2017-01-13T05:56:52.590Z,977.52
2017-01-13T05:58:03.691Z,977.55
2017-01-13T05:59:14.461Z,977.57
2017-01-13T06:00:25.187Z,977.56
2017-01-13T06:01:35.924Z,977.59
2017-01-13T06:02:46.642Z,977.52
2017-01-13T06:03:57.362Z,977.48
2017-01-13T06:05:08.080Z,977.48
2017-01-13T06:06:18.811Z,977.43
2017-01-13T06:07:29.579Z,977.43
2017-01-13T06:08:40.283Z,977.41
2017-01-13T06:09:51.003Z,977.38
2017-01-13T06:11:01.721Z,977.35
2017-01-13T06:12:12.463Z,977.28
2017-01-13T06:13:23.185Z,977.36
2017-01-13T06:14:33.923Z,977.29
2017-01-13T06:15:44.644Z,977.24
2017-01-13T06:16:55.375Z,977.19
2017-01-13T06:18:06.121Z,977.22
2017-01-13T06:19:17.274Z,977.22
2017-01-13T06:20:27.990Z,977.19
2017-01-13T06:21:38.735Z,977.2
2017-01-13T06:22:49.470Z,977.18
2017-01-13T06:24:00.198Z,977.08
2017-01-13T06:25:10.925Z,977.09
2017-01-13T06:26:21.665Z,977.12
2017-01-13T06:27:32.386Z,977.08
2017-01-13T06:28:43.136Z,977.07
2017-01-13T06:29:53.881Z,977.08
2017-01-13T06:31:04.619Z,977.04
2017-01-13T06:32:15.321Z,977.01
2017-01-13T06:33:26.018Z,977.01
2017-01-13T06:34:36.736Z,976.97
2017-01-13T06:35:47.435Z,977
2017-01-13T06:36:58.145Z,976.96
2017-01-13T06:38:08.851Z,976.97
2017-01-13T06:39:19.591Z,976.94
2017-01-13T06:40:30.333Z,976.93
2017-01-13T06:41:41.062Z,976.93
2017-01-13T06:42:51.801Z,976.94
2017-01-13T06:44:02.532Z,976.94
2017-01-13T06:45:13.251Z,977
2017-01-13T06:46:23.999Z,976.97
2017-01-13T06:47:34.717Z,976.99
2017-01-13T06:48:45.416Z,976.94
2017-01-13T06:49:56.155Z,976.95
2017-01-13T06:51:06.897Z,976.96
2017-01-13T06:52:17.601Z,976.94
2017-01-13T06:53:28.318Z,976.89
2017-01-13T06:54:39.037Z,976.96
2017-01-13T06:55:49.742Z,976.99
2017-01-13T06:57:00.459Z,976.99
2017-01-13T06:58:11.197Z,976.95
2017-01-13T06:59:21.923Z,976.95
2017-01-13T07:00:32.673Z,977
2017-01-13T07:01:43.394Z,976.96
2017-01-13T07:02:54.143Z,977
2017-01-13T07:04:04.879Z,977.02
2017-01-13T07:05:15.581Z,977.06
2017-01-13T07:06:26.299Z,977
2017-01-13T07:07:37.030Z,977
2017-01-13T07:08:47.773Z,976.99
2017-01-13T07:09:58.491Z,977.05
2017-01-13T07:11:09.204Z,976.97
2017-01-13T07:12:19.907Z,977.03
2017-01-13T07:13:30.636Z,977.01
2017-01-13T07:14:41.354Z,977.05
2017-01-13T07:15:52.063Z,977.08
2017-01-13T07:17:02.784Z,977.06
2017-01-13T07:18:13.506Z,977.1
2017-01-13T07:19:24.233Z,977.01
2017-01-13T07:20:34.955Z,977.11
2017-01-13T07:21:45.672Z,977.07
2017-01-13T07:22:56.373Z,977.17
2017-01-13T07:24:07.496Z,976.99
2017-01-13T07:25:18.207Z,977.15
2017-01-13T07:26:28.906Z,977.12
2017-01-13T07:27:39.635Z,977.19
2017-01-13T07:28:50.356Z,977.13
2017-01-13T07:30:01.067Z,977.08
2017-01-13T07:31:11.786Z,977.15
2017-01-13T07:32:22.490Z,977.18
2017-01-13T07:33:33.215Z,977.13
2017-01-13T07:34:43.985Z,977.14
2017-01-13T07:35:54.709Z,977.19
2017-01-13T07:37:05.446Z,977.2
2017-01-13T07:38:16.199Z,977.2
2017-01-13T07:39:26.917Z,977.24
2017-01-13T07:40:37.633Z,977.23
2017-01-13T07:41:48.408Z,977.22
2017-01-13T07:42:59.122Z,977.29
2017-01-13T07:44:09.859Z,977.26
2017-01-13T07:45:20.646Z,977.31
2017-01-13T07:46:31.760Z,977.29
2017-01-13T07:47:42.484Z,977.32
2017-01-13T07:48:53.587Z,977.31
2017-01-13T07:50:04.335Z,977.33
2017-01-13T07:51:15.052Z,977.4
2017-01-13T07:52:25.768Z,977.38
2017-01-13T07:53:36.494Z,977.39
2017-01-13T07:54:47.265Z,977.42
2017-01-13T07:55:58.029Z,977.46
2017-01-13T07:57:08.757Z,977.37
2017-01-13T07:58:19.534Z,977.47
2017-01-13T07:59:30.277Z,977.52
2017-01-13T08:00:40.998Z,977.54
2017-01-13T08:01:51.734Z,977.52
2017-01-13T08:03:02.462Z,977.5
2017-01-13T08:04:13.175Z,977.54
2017-01-13T08:05:23.929Z,977.6
2017-01-13T08:06:34.671Z,977.61
2017-01-13T08:07:45.401Z,977.65
2017-01-13T08:08:56.144Z,977.65
2017-01-13T08:10:06.867Z,977.65
2017-01-13T08:11:17.606Z,977.67
2017-01-13T08:12:28.338Z,977.65
2017-01-13T08:13:39.077Z,977.67
2017-01-13T08:14:49.797Z,977.68
2017-01-13T08:16:00.922Z,977.68
2017-01-13T08:17:11.661Z,977.69
2017-01-13T08:18:22.404Z,977.68
2017-01-13T08:19:33.132Z,977.74
2017-01-13T08:20:43.835Z,977.71
2017-01-13T08:21:54.549Z,977.7
2017-01-13T08:23:05.292Z,977.7
2017-01-13T08:24:16.008Z,977.75
2017-01-13T08:25:26.734Z,977.72
2017-01-13T08:26:37.459Z,977.77
2017-01-13T08:27:48.159Z,977.79
2017-01-13T08:28:58.903Z,977.79
2017-01-13T08:30:09.646Z,977.87
2017-01-13T08:31:20.388Z,977.83
2017-01-13T08:32:31.139Z,977.85
2017-01-13T08:33:41.861Z,977.86
2017-01-13T08:34:52.585Z,977.88
2017-01-13T08:36:03.330Z,977.91
2017-01-13T08:37:14.048Z,977.91
2017-01-13T08:38:24.766Z,977.94
2017-01-13T08:39:35.483Z,977.93
2017-01-13T08:40:46.212Z,977.96
2017-01-13T08:41:56.925Z,977.99
2017-01-13T08:43:07.657Z,977.99
2017-01-13T08:44:18.382Z,978.03
2017-01-13T08:45:29.095Z,978.05
2017-01-13T08:46:39.839Z,978.05
2017-01-13T08:47:50.560Z,978.1
2017-01-13T08:49:01.287Z,978.04
2017-01-13T08:50:12.034Z,978.1
2017-01-13T08:51:22.804Z,978.12
2017-01-13T08:52:33.542Z,978.12
2017-01-13T08:53:44.272Z,978.12
2017-01-13T08:54:55.020Z,978.09
2017-01-13T08:56:05.760Z,978.12
2017-01-13T08:57:16.481Z,978.13
2017-01-13T08:58:27.194Z,978.13
2017-01-13T08:59:37.926Z,978.13
2017-01-13T09:00:49.022Z,978.19
2017-01-13T09:01:59.769Z,978.23
2017-01-13T09:03:10.514Z,978.25
2017-01-13T09:04:21.253Z,978.25
2017-01-13T09:05:31.979Z,978.26
2017-01-13T09:06:42.702Z,978.31
2017-01-13T09:07:53.473Z,978.26
2017-01-13T09:09:04.191Z,978.32
2017-01-13T09:10:14.912Z,978.35
2017-01-13T09:11:25.651Z,978.39
2017-01-13T09:12:36.380Z,978.46
2017-01-13T09:13:47.092Z,978.51
2017-01-13T09:14:57.826Z,978.52
2017-01-13T09:16:08.570Z,978.61
2017-01-13T09:17:19.313Z,978.56
2017-01-13T09:18:30.038Z,978.59
2017-01-13T09:19:40.784Z,978.64
2017-01-13T09:20:51.901Z,978.57
2017-01-13T09:22:02.626Z,978.6
2017-01-13T09:23:13.348Z,978.64
2017-01-13T09:24:24.089Z,978.64
2017-01-13T09:25:34.835Z,978.7
2017-01-13T09:26:45.558Z,978.68
2017-01-13T09:27:56.282Z,978.73
2017-01-13T09:29:06.998Z,978.77
2017-01-13T09:30:17.741Z,978.75
2017-01-13T09:31:28.486Z,978.8
2017-01-13T09:32:39.214Z,978.84
2017-01-13T09:33:49.935Z,978.87
2017-01-13T09:35:01.062Z,978.81
2017-01-13T09:36:12.179Z,978.83
2017-01-13T09:37:22.902Z,978.92
2017-01-13T09:38:33.642Z,978.82
2017-01-13T09:39:44.741Z,978.89
2017-01-13T09:40:55.467Z,978.91
2017-01-13T09:42:06.583Z,978.93
2017-01-13T09:43:17.325Z,978.95
2017-01-13T09:44:28.025Z,978.98
2017-01-13T09:45:38.749Z,978.95
2017-01-13T09:46:49.466Z,979.01
2017-01-13T09:48:00.184Z,979
2017-01-13T09:49:10.902Z,978.96
2017-01-13T09:50:21.626Z,978.99
2017-01-13T09:51:32.375Z,979.09
2017-01-13T09:52:43.124Z,979.06
2017-01-13T09:53:53.840Z,979.07
2017-01-13T09:55:04.557Z,979.04
2017-01-13T09:56:15.252Z,979.1
2017-01-13T09:57:26.005Z,979.12
2017-01-13T09:58:36.748Z,979.08
2017-01-13T09:59:47.466Z,979.12
2017-01-13T10:00:58.175Z,979.16
2017-01-13T10:02:08.915Z,979.11
2017-01-13T10:03:19.650Z,979.19
2017-01-13T10:04:30.374Z,979.19
2017-01-13T10:05:41.103Z,979.16
2017-01-13T10:06:51.813Z,979.22
2017-01-13T10:08:02.938Z,979.25
2017-01-13T10:09:13.689Z,979.29
2017-01-13T10:10:24.412Z,979.26
2017-01-13T10:11:35.157Z,979.28
2017-01-13T10:12:45.893Z,979.24
2017-01-13T10:13:56.617Z,979.25
2017-01-13T10:15:07.721Z,979.29
2017-01-13T10:16:18.455Z,979.32
2017-01-13T10:17:29.204Z,979.33
2017-01-13T10:18:39.980Z,979.36
2017-01-13T10:19:50.721Z,979.34
2017-01-13T10:21:01.450Z,979.37
2017-01-13T10:22:12.201Z,979.4
2017-01-13T10:23:22.938Z,979.41
2017-01-13T10:24:33.658Z,979.48
2017-01-13T10:25:44.372Z,979.52
2017-01-13T10:26:55.100Z,979.46
2017-01-13T10:28:05.796Z,979.48
2017-01-13T10:29:16.570Z,979.56
2017-01-13T10:30:27.272Z,979.56
2017-01-13T10:31:37.987Z,979.57
2017-01-13T10:32:48.726Z,979.6
2017-01-13T10:33:59.453Z,979.69
2017-01-13T10:35:10.172Z,979.69
2017-01-13T10:36:20.863Z,979.71
2017-01-13T10:37:31.592Z,979.67
2017-01-13T10:38:42.328Z,979.75
2017-01-13T10:39:53.031Z,979.8
2017-01-13T10:41:03.743Z,979.78
2017-01-13T10:42:14.475Z,979.77
2017-01-13T10:43:25.189Z,979.8
2017-01-13T10:44:35.939Z,979.85
2017-01-13T10:45:46.629Z,979.87
2017-01-13T10:46:57.356Z,979.86
2017-01-13T10:48:08.077Z,979.91
2017-01-13T10:49:18.780Z,979.95
2017-01-13T10:50:29.523Z,979.96
2017-01-13T10:51:40.266Z,980
2017-01-13T10:52:50.991Z,979.96
2017-01-13T10:54:01.728Z,979.96
2017-01-13T10:55:12.457Z,979.99
2017-01-13T10:56:23.174Z,979.98
2017-01-13T10:57:33.924Z,980.02
2017-01-13T10:58:44.659Z,980.04
2017-01-13T10:59:55.374Z,980.04
2017-01-13T11:01:06.133Z,980.08
2017-01-13T11:02:16.881Z,980.08
2017-01-13T11:03:27.603Z,980.14
2017-01-13T11:04:38.349Z,980.16
2017-01-13T11:05:49.102Z,980.15
2017-01-13T11:06:59.830Z,980.2
2017-01-13T11:08:10.560Z,980.18
2017-01-13T11:09:21.277Z,980.24
2017-01-13T11:10:32.001Z,980.22
2017-01-13T11:11:42.727Z,980.21
2017-01-13T11:12:53.475Z,980.29
2017-01-13T11:14:04.210Z,980.32
2017-01-13T11:15:14.936Z,980.38
2017-01-13T11:16:25.652Z,980.36
2017-01-13T11:17:36.432Z,980.41
2017-01-13T11:18:47.175Z,980.42
2017-01-13T11:19:57.897Z,980.44
2017-01-13T11:21:09.020Z,980.47
2017-01-13T11:22:20.143Z,980.48
2017-01-13T11:23:30.860Z,980.54
2017-01-13T11:24:41.595Z,980.52
2017-01-13T11:25:52.317Z,980.51
2017-01-13T11:27:03.045Z,980.58
2017-01-13T11:28:13.771Z,980.65
2017-01-13T11:29:24.533Z,980.62
2017-01-13T11:30:35.302Z,980.68
2017-01-13T11:31:46.032Z,980.69
2017-01-13T11:32:56.759Z,980.75
2017-01-13T11:34:07.475Z,980.73
2017-01-13T11:35:18.189Z,980.69
2017-01-13T11:36:28.918Z,980.79
2017-01-13T11:37:39.634Z,980.79
2017-01-13T11:38:50.380Z,980.8
2017-01-13T11:40:01.106Z,980.91
2017-01-13T11:41:11.819Z,980.92
2017-01-13T11:42:22.543Z,980.99
2017-01-13T11:43:33.242Z,981
2017-01-13T11:44:43.988Z,981.04
2017-01-13T11:45:54.738Z,981.11
2017-01-13T11:47:05.457Z,981.13
2017-01-13T11:48:16.196Z,981.1
2017-01-13T11:49:26.952Z,981.21
2017-01-13T11:50:37.695Z,981.19
2017-01-13T11:51:48.415Z,981.15
2017-01-13T11:52:59.133Z,981.27
2017-01-13T11:54:09.881Z,981.33
2017-01-13T11:55:20.628Z,981.32
2017-01-13T11:56:31.371Z,981.37
2017-01-13T11:57:42.112Z,981.41
2017-01-13T11:58:52.862Z,981.38
2017-01-13T12:00:03.613Z,981.47
2017-01-13T12:01:14.348Z,981.54
2017-01-13T12:02:25.079Z,981.55
2017-01-13T12:03:35.817Z,981.63
2017-01-13T12:04:46.564Z,981.59
2017-01-13T12:05:57.313Z,981.54
2017-01-13T12:07:08.038Z,981.65
2017-01-13T12:08:18.775Z,981.77
2017-01-13T12:09:29.502Z,981.77
2017-01-13T12:10:40.227Z,981.8
2017-01-13T12:11:50.936Z,981.79
2017-01-13T12:13:01.640Z,981.8
2017-01-13T12:14:12.354Z,981.82
2017-01-13T12:15:23.057Z,981.88
2017-01-13T12:16:33.795Z,981.92
2017-01-13T12:17:44.516Z,981.99
2017-01-13T12:18:55.649Z,982.03
2017-01-13T12:20:06.771Z,982.05
2017-01-13T12:21:17.505Z,982.14
2017-01-13T12:22:28.212Z,982.2
2017-01-13T12:23:38.929Z,982.21
2017-01-13T12:24:49.678Z,982.28
2017-01-13T12:26:00.421Z,982.28
2017-01-13T12:27:11.163Z,982.31
2017-01-13T12:28:21.891Z,982.42
2017-01-13T12:29:32.603Z,982.44
2017-01-13T12:30:43.331Z,982.51
2017-01-13T12:31:54.060Z,982.56
2017-01-13T12:33:04.826Z,982.6
2017-01-13T12:34:15.562Z,982.61
2017-01-13T12:35:26.266Z,982.66
2017-01-13T12:36:36.985Z,982.8
2017-01-13T12:37:47.710Z,982.79
2017-01-13T12:38:58.451Z,982.85
2017-01-13T12:40:09.572Z,982.87
2017-01-13T12:41:20.290Z,982.85
2017-01-13T12:42:31.008Z,983.06
2017-01-13T12:43:41.739Z,983.02
2017-01-13T12:44:52.450Z,983.11
2017-01-13T12:46:03.181Z,983.11
2017-01-13T12:47:13.920Z,983.21
2017-01-13T12:48:24.641Z,983.21
2017-01-13T12:49:35.348Z,983.31
2017-01-13T12:50:46.085Z,983.4
2017-01-13T12:51:56.801Z,983.32
2017-01-13T12:53:07.530Z,983.4
2017-01-13T12:54:18.255Z,983.48
2017-01-13T12:55:29.023Z,983.53
2017-01-13T12:56:39.761Z,983.54
2017-01-13T12:57:50.467Z,983.62
2017-01-13T12:59:01.205Z,983.65
2017-01-13T13:00:11.932Z,983.67
2017-01-13T13:01:22.681Z,983.77
2017-01-13T13:02:33.431Z,983.79
2017-01-13T13:03:44.522Z,983.86
2017-01-13T13:04:55.269Z,983.87
2017-01-13T13:06:06.011Z,983.95
2017-01-13T13:07:16.761Z,984
2017-01-13T13:08:27.506Z,984.1
2017-01-13T13:09:38.275Z,984.1
2017-01-13T13:10:49.021Z,984.1
2017-01-13T13:11:59.746Z,984.16
2017-01-13T13:13:10.466Z,984.16
2017-01-13T13:14:21.203Z,984.24
2017-01-13T13:15:31.930Z,984.3
2017-01-13T13:16:42.670Z,984.27
2017-01-13T13:17:53.378Z,984.34
2017-01-13T13:19:04.122Z,984.36
2017-01-13T13:20:15.244Z,984.46
2017-01-13T13:21:25.954Z,984.48
2017-01-13T13:22:36.683Z,984.48
2017-01-13T13:23:47.400Z,984.6
2017-01-13T13:24:58.150Z,984.58
2017-01-13T13:26:08.871Z,984.66
2017-01-13T13:27:19.609Z,984.69
2017-01-13T13:28:30.355Z,984.75
2017-01-13T13:29:41.110Z,984.76
2017-01-13T13:30:51.844Z,984.81
2017-01-13T13:32:02.569Z,984.83
2017-01-13T13:33:13.299Z,984.89
2017-01-13T13:34:23.994Z,984.94
2017-01-13T13:35:34.736Z,984.96
2017-01-13T13:36:45.453Z,985.12
2017-01-13T13:37:56.186Z,985.16
2017-01-13T13:39:06.899Z,985.16
2017-01-13T13:40:18.022Z,985.17
2017-01-13T13:41:28.737Z,985.24
2017-01-13T13:42:39.832Z,985.33
2017-01-13T13:43:50.557Z,985.24
2017-01-13T13:45:01.282Z,985.31
2017-01-13T13:46:12.015Z,985.4
2017-01-13T13:47:22.716Z,985.4
2017-01-13T13:48:33.486Z,985.46
2017-01-13T13:49:44.187Z,985.51
2017-01-13T13:50:54.885Z,985.53
2017-01-13T13:52:05.571Z,985.54
2017-01-13T13:53:16.295Z,985.55
2017-01-13T13:54:27.048Z,985.62
2017-01-13T13:55:37.769Z,985.73
2017-01-13T13:56:48.488Z,985.72
2017-01-13T13:57:59.229Z,985.81
2017-01-13T13:59:09.974Z,985.8
2017-01-13T14:00:20.669Z,985.82
2017-01-13T14:01:31.395Z,985.9
2017-01-13T14:02:42.119Z,986.05
2017-01-13T14:03:52.855Z,986.01
2017-01-13T14:05:03.586Z,986.06
2017-01-13T14:06:14.332Z,986.12
2017-01-13T14:07:25.076Z,986.2
2017-01-13T14:08:35.814Z,986.23
2017-01-13T14:09:46.535Z,986.33
2017-01-13T14:10:57.256Z,986.34
2017-01-13T14:12:07.954Z,986.47
2017-01-13T14:13:18.648Z,986.5
2017-01-13T14:14:29.380Z,986.58
2017-01-13T14:15:40.143Z,986.67
2017-01-13T14:16:50.872Z,986.66
2017-01-13T14:18:01.594Z,986.77
2017-01-13T14:19:12.337Z,986.81
2017-01-13T14:20:23.061Z,986.95
2017-01-13T14:21:33.773Z,987
2017-01-13T14:22:44.524Z,987.08
2017-01-13T14:23:55.247Z,987.11
2017-01-13T14:25:05.990Z,987.07
2017-01-13T14:26:16.729Z,987.18
2017-01-13T14:27:27.450Z,987.28
2017-01-13T14:28:38.171Z,987.21
2017-01-13T14:29:48.895Z,987.36
2017-01-13T14:30:59.999Z,987.34
2017-01-13T14:32:10.718Z,987.42
2017-01-13T14:33:21.458Z,987.45
2017-01-13T14:34:32.188Z,987.41
2017-01-13T14:35:42.930Z,987.49
2017-01-13T14:36:53.653Z,987.54
2017-01-13T14:38:04.418Z,987.63
2017-01-13T14:39:15.147Z,987.56
2017-01-13T14:40:25.889Z,987.67
2017-01-13T14:41:36.637Z,987.65
2017-01-13T14:42:47.384Z,987.66
2017-01-13T14:43:58.128Z,987.76
2017-01-13T14:45:08.844Z,987.79
2017-01-13T14:46:19.586Z,987.82